Nacc Quebec — CHAC — position and weather

sailwx.info

Track history (hours):
 
Tides and Currents Weather Stations Pressure Air Temp Water Temp Dewpoint Dewpoint Depression Visibility Wind Speed Wind Dir Waves Ship Positions

Nacc Quebec

Last reported at 2018-Jun-18 02:03 UTC. Time now 2018-Jun-19 06:52 UTC.
Position N 46°50' W 071°09'.

Length 139 m; draft 6.4 m.

Type: Cargo ship. MMSI: 316034372.

Date/timePositionNaut miles runAvg speedWind from/ knotsBaromVisibWave heightAir tempDewpointWater temp
2018-Jun-18 02:03N 46°50' W 071°09'210.3
2018-Jun-18 01:53N 46°50' W 071°11'9012.2
2018-Jun-17 18:32N 46°04' W 073°03'014.2
2018-Jun-17 18:30N 46°04' W 073°04'612.1
2018-Jun-17 18:00N 46°00' W 073°11'714.2
2018-Jun-17 17:30N 45°53' W 073°15'714.2
2018-Jun-17 17:00N 45°48' W 073°20'713.9
2018-Jun-17 16:30N 45°42' W 073°27'1211.2
2018-Jun-17 15:23N 45°30' W 073°31'0 0.8
2018-Jun-17 14:48N 45°30' W 073°31'0 1.3
2018-Jun-17 14:30N 45°29' W 073°31'2 3.6
2018-Jun-17 14:00N 45°27' W 073°30'3 6.0
2018-Jun-17 13:30N 45°25' W 073°32'2 3.5
2018-Jun-17 13:00N 45°24' W 073°34'0 0.5
2018-Jun-17 12:30N 45°24' W 073°34'1 2.1
2018-Jun-17 12:00N 45°24' W 073°36'2 3.3
2018-Jun-17 11:30N 45°24' W 073°38'2 4.7
2018-Jun-17 11:00N 45°25' W 073°41'4 7.5
2018-Jun-17 10:30N 45°24' W 073°46'1 2.5
2018-Jun-17 10:00N 45°23' W 073°48'4 8.1
2018-Jun-17 09:30N 45°25' W 073°42'3 5.3
2018-Jun-17 09:00N 45°24' W 073°39'2 4.2
2018-Jun-17 08:30N 45°24' W 073°36'0 0.0
2018-Jun-17 08:00N 45°24' W 073°36'0 0.0
2018-Jun-17 07:30N 45°24' W 073°36'0 0.0
2018-Jun-17 07:00N 45°24' W 073°36'0 0.0
2018-Jun-17 06:30N 45°24' W 073°36'0 0.0
2018-Jun-17 06:00N 45°24' W 073°36'0 0.0
2018-Jun-17 05:30N 45°24' W 073°36'0 0.0
2018-Jun-17 05:00N 45°24' W 073°36'0 0.0
2018-Jun-17 04:30N 45°24' W 073°36'0 0.0
2018-Jun-17 03:59N 45°24' W 073°36'0 0.0
2018-Jun-17 03:30N 45°24' W 073°36'0 0.0
2018-Jun-17 03:00N 45°24' W 073°36'0 0.0
2018-Jun-17 02:30N 45°24' W 073°36'0 0.0
2018-Jun-17 02:00N 45°24' W 073°36'0 0.0
2018-Jun-17 01:30N 45°24' W 073°36'0 0.0
2018-Jun-17 01:00N 45°24' W 073°36'0 0.0
2018-Jun-17 00:30N 45°24' W 073°36'0 0.0
2018-Jun-17 00:00N 45°24' W 073°36'0 0.0
2018-Jun-16 23:30N 45°24' W 073°36'0 0.0
2018-Jun-16 23:00N 45°24' W 073°36'0 0.0
2018-Jun-16 22:30N 45°24' W 073°36'0 0.0
2018-Jun-16 22:00N 45°24' W 073°36'0 0.0
2018-Jun-16 21:30N 45°24' W 073°36'0 0.0
2018-Jun-16 21:00N 45°24' W 073°36'0 0.0
2018-Jun-16 20:30N 45°24' W 073°36'0 0.0
2018-Jun-16 20:00N 45°24' W 073°36'0 0.0
2018-Jun-16 19:30N 45°24' W 073°36'0 0.0
2018-Jun-16 19:00N 45°24' W 073°36'0 0.0
2018-Jun-16 18:30N 45°24' W 073°36'0 0.0
2018-Jun-16 18:00N 45°24' W 073°36'0 0.0
2018-Jun-16 17:30N 45°24' W 073°36'0 0.0
2018-Jun-16 17:00N 45°24' W 073°36'0 0.0
2018-Jun-16 16:30N 45°24' W 073°36'0 0.0
2018-Jun-16 15:59N 45°24' W 073°36'0 0.0
2018-Jun-16 15:30N 45°24' W 073°36'0 0.0
2018-Jun-16 15:00N 45°24' W 073°36'0 0.0
2018-Jun-16 14:30N 45°24' W 073°36'0 0.0
2018-Jun-16 14:00N 45°24' W 073°36'0 0.0
2018-Jun-16 13:30N 45°24' W 073°36'0 0.0
2018-Jun-16 12:59N 45°24' W 073°36'0 0.0
2018-Jun-16 12:30N 45°24' W 073°36'0 0.0
2018-Jun-16 12:00N 45°24' W 073°36'0 0.0
2018-Jun-16 11:30N 45°24' W 073°36'0 0.0
2018-Jun-16 11:00N 45°24' W 073°36'0 0.0
2018-Jun-16 10:30N 45°24' W 073°36'0 0.0
2018-Jun-16 10:00N 45°24' W 073°36'0 0.0
2018-Jun-16 09:30N 45°24' W 073°36'0 0.0
2018-Jun-16 09:00N 45°24' W 073°36'0 0.0
2018-Jun-16 08:30N 45°24' W 073°36'0 0.0
2018-Jun-16 08:00N 45°24' W 073°36'0 0.0
2018-Jun-16 07:30N 45°24' W 073°36'0 0.0
2018-Jun-16 07:00N 45°24' W 073°36'0 0.0
2018-Jun-16 06:30N 45°24' W 073°36'0 0.0
2018-Jun-16 06:00N 45°24' W 073°36'0 0.0
2018-Jun-16 05:30N 45°24' W 073°36'0 0.0
2018-Jun-16 05:00N 45°24' W 073°36'0 0.0
2018-Jun-16 04:30N 45°24' W 073°36'0 0.0
2018-Jun-16 04:00N 45°24' W 073°36'0 0.8
2018-Jun-16 03:30N 45°24' W 073°35'1 1.7
2018-Jun-16 03:01N 45°24' W 073°34'0 0.2
2018-Jun-16 02:31N 45°24' W 073°34'1 1.4
2018-Jun-16 02:01N 45°24' W 073°33'2 4.5
2018-Jun-16 01:31N 45°26' W 073°30'3 5.6
2018-Jun-16 01:01N 45°29' W 073°30'1 2.5
2018-Jun-16 00:31N 45°30' W 073°31'0 0.2
2018-Jun-16 00:00N 45°30' W 073°31'12 4.6
2018-Jun-15 21:31N 45°41' W 073°27'2 8.4
2018-Jun-15 21:14N 45°43' W 073°26'2 8.5
2018-Jun-15 20:59N 45°45' W 073°24'4 8.5
2018-Jun-15 20:30N 45°48' W 073°20'4 8.7
2018-Jun-15 20:00N 45°51' W 073°16'4 8.4
2018-Jun-15 19:30N 45°55' W 073°13'4 8.4
2018-Jun-15 19:00N 45°59' W 073°11'4 8.7
2018-Jun-15 18:30N 46°03' W 073°09'5 9.1
2018-Jun-15 18:00N 46°04' W 073°03'8910.0
2018-Jun-15 09:08N 46°49' W 071°11'1 8.3
2018-Jun-15 08:58N 46°50' W 071°11'  
2018-Jun-11 08:27N 46°50' W 071°09'9212.0
2018-Jun-11 00:49N 46°04' W 073°03'413.7
2018-Jun-11 00:31N 46°03' W 073°09'714.2
2018-Jun-11 00:01N 45°56' W 073°13'713.8
2018-Jun-10 23:30N 45°50' W 073°17'714.2
2018-Jun-10 23:00N 45°45' W 073°24'1510.9
2018-Jun-10 21:36N 45°30' W 073°31'0 4.4
2018-Jun-10 21:31N 45°30' W 073°31'0 0.4
2018-Jun-10 21:00N 45°30' W 073°31'0 0.7
2018-Jun-10 20:31N 45°29' W 073°31'1 1.7
2018-Jun-10 20:01N 45°28' W 073°30'2 3.8
2018-Jun-10 19:30N 45°26' W 073°30'1 2.8
2018-Jun-10 18:59N 45°25' W 073°31'2 4.7
2018-Jun-10 18:31N 45°24' W 073°34'0 0.6
2018-Jun-10 18:00N 45°24' W 073°34'1 1.1
2018-Jun-10 17:31N 45°24' W 073°35'1 1.3
2018-Jun-10 17:00N 45°24' W 073°36'0 0.0
2018-Jun-10 16:30N 45°24' W 073°36'0 0.0
2018-Jun-10 16:00N 45°24' W 073°36'0 0.0
2018-Jun-10 15:30N 45°24' W 073°36'0 0.0
2018-Jun-10 15:00N 45°24' W 073°36'0 0.0
2018-Jun-10 14:30N 45°24' W 073°36'0 0.0
2018-Jun-10 13:30N 45°24' W 073°36'0 0.0
2018-Jun-10 13:00N 45°24' W 073°36'0 0.0
2018-Jun-10 12:30N 45°24' W 073°36'0 0.0
2018-Jun-10 12:00N 45°24' W 073°36'0 0.0
2018-Jun-10 11:30N 45°24' W 073°36'0 0.0
2018-Jun-10 11:00N 45°24' W 073°36'0 0.0
2018-Jun-10 10:30N 45°24' W 073°36'0 0.0
2018-Jun-10 10:00N 45°24' W 073°36'0 0.0
2018-Jun-10 09:30N 45°24' W 073°36'0 0.0
2018-Jun-10 09:00N 45°24' W 073°36'0 0.0
2018-Jun-10 08:30N 45°24' W 073°36'0 0.0
2018-Jun-10 08:00N 45°24' W 073°36'0 0.0
2018-Jun-10 07:30N 45°24' W 073°36'0 0.0
2018-Jun-10 07:00N 45°24' W 073°36'0 0.0
2018-Jun-10 06:30N 45°24' W 073°36'0 0.0
2018-Jun-10 06:00N 45°24' W 073°36'0 0.0
2018-Jun-10 05:30N 45°24' W 073°36'0 0.0
2018-Jun-10 05:00N 45°24' W 073°36'0 0.0
2018-Jun-10 04:30N 45°24' W 073°36'0 0.0
2018-Jun-10 04:00N 45°24' W 073°36'0 0.0
2018-Jun-10 03:30N 45°24' W 073°36'0 0.0
2018-Jun-10 03:00N 45°24' W 073°36'0 0.0
2018-Jun-10 02:30N 45°24' W 073°36'0 0.0
2018-Jun-10 02:00N 45°24' W 073°36'0 0.0
2018-Jun-10 01:30N 45°24' W 073°36'0 0.0
2018-Jun-10 01:00N 45°24' W 073°36'0 0.0
2018-Jun-10 00:30N 45°24' W 073°36'0 0.0
2018-Jun-10 00:00N 45°24' W 073°36'0 0.0
2018-Jun-09 23:30N 45°24' W 073°36'0 0.0
2018-Jun-09 23:00N 45°24' W 073°36'0 0.0
2018-Jun-09 22:30N 45°24' W 073°36'0 0.0
2018-Jun-09 22:00N 45°24' W 073°36'0 0.0
2018-Jun-09 21:30N 45°24' W 073°36'0 0.0
2018-Jun-09 21:00N 45°24' W 073°36'0 0.0
2018-Jun-09 20:30N 45°24' W 073°36'0 0.0
2018-Jun-09 20:00N 45°24' W 073°36'0 0.0
2018-Jun-09 19:30N 45°24' W 073°36'0 0.0
2018-Jun-09 19:00N 45°24' W 073°36'0 0.0
2018-Jun-09 18:30N 45°24' W 073°36'0 0.0
2018-Jun-09 18:00N 45°24' W 073°36'0 0.0
2018-Jun-09 17:30N 45°24' W 073°36'0 0.0
2018-Jun-09 17:00N 45°24' W 073°36'0 0.0
2018-Jun-09 16:30N 45°24' W 073°36'0 0.0
2018-Jun-09 16:00N 45°24' W 073°36'0 0.0
2018-Jun-09 15:00N 45°24' W 073°36'0 0.0
2018-Jun-09 14:30N 45°24' W 073°36'0 0.0
2018-Jun-09 14:00N 45°24' W 073°36'0 0.0
2018-Jun-09 13:30N 45°24' W 073°36'0 0.0
2018-Jun-09 13:00N 45°24' W 073°36'0 0.0
2018-Jun-09 12:30N 45°24' W 073°36'0 0.0
2018-Jun-09 12:00N 45°24' W 073°36'0 0.0
2018-Jun-09 11:30N 45°24' W 073°36'0 0.0
2018-Jun-09 11:00N 45°24' W 073°36'0 0.0
2018-Jun-09 10:30N 45°24' W 073°36'0 0.0
2018-Jun-09 10:00N 45°24' W 073°36'0 0.7
2018-Jun-09 09:30N 45°24' W 073°36'1 3.0
2018-Jun-09 09:00N 45°24' W 073°38'3 5.2
2018-Jun-09 08:30N 45°25' W 073°42'4 7.7
2018-Jun-09 08:00N 45°24' W 073°47'0 0.2
2018-Jun-09 07:30N 45°24' W 073°47'4 8.1
2018-Jun-09 07:00N 45°25' W 073°42'3 5.6
2018-Jun-09 06:30N 45°24' W 073°38'3 5.2
2018-Jun-09 06:01N 45°24' W 073°34'0 0.4
2018-Jun-09 05:30N 45°24' W 073°34'1 1.5
2018-Jun-09 05:01N 45°24' W 073°33'2 4.9
2018-Jun-09 04:31N 45°26' W 073°30'3 6.0
2018-Jun-09 04:00N 45°29' W 073°31'1 1.2
2018-Jun-09 03:30N 45°30' W 073°31'0 0.6
2018-Jun-09 03:00N 45°30' W 073°31'11 5.9
2018-Jun-09 01:09N 45°41' W 073°27'3 8.7
2018-Jun-09 00:51N 45°43' W 073°26'3 8.7
2018-Jun-09 00:30N 45°46' W 073°23'4 8.9
2018-Jun-09 00:01N 45°49' W 073°19'4 8.9
2018-Jun-08 23:30N 45°52' W 073°15'4 8.4
2018-Jun-08 23:00N 45°56' W 073°13'4 8.6
2018-Jun-08 22:30N 46°00' W 073°11'4 8.0
2018-Jun-08 22:00N 46°03' W 073°07'91 7.7
2018-Jun-08 10:05N 46°48' W 071°12'1 8.3
2018-Jun-08 10:00N 46°49' W 071°12'  
Track history (hours):
 
Tides and Currents Weather Stations Pressure Air Temp Water Temp Dewpoint Dewpoint Depression Visibility Wind Speed Wind Dir Waves Ship Positions

Nacc Quebec

Last reported at 2018-Jun-18 02:03 UTC. Time now 2018-Jun-19 06:52 UTC.
Position N 46°50' W 071°09'.

Length 139 m; draft 6.4 m.

Type: Cargo ship. MMSI: 316034372.

Date/timePositionNaut miles runAvg speedWind from/ knotsBaromVisibWave heightAir tempDewpointWater temp
2018-Jun-18 02:03N 46°50' W 071°09'210.3
2018-Jun-18 01:53N 46°50' W 071°11'9012.2
2018-Jun-17 18:32N 46°04' W 073°03'014.2
2018-Jun-17 18:30N 46°04' W 073°04'612.1
2018-Jun-17 18:00N 46°00' W 073°11'714.2
2018-Jun-17 17:30N 45°53' W 073°15'714.2
2018-Jun-17 17:00N 45°48' W 073°20'713.9
2018-Jun-17 16:30N 45°42' W 073°27'1211.2
2018-Jun-17 15:23N 45°30' W 073°31'0 0.8
2018-Jun-17 14:48N 45°30' W 073°31'0 1.3
2018-Jun-17 14:30N 45°29' W 073°31'2 3.6
2018-Jun-17 14:00N 45°27' W 073°30'3 6.0
2018-Jun-17 13:30N 45°25' W 073°32'2 3.5
2018-Jun-17 13:00N 45°24' W 073°34'0 0.5
2018-Jun-17 12:30N 45°24' W 073°34'1 2.1
2018-Jun-17 12:00N 45°24' W 073°36'2 3.3
2018-Jun-17 11:30N 45°24' W 073°38'2 4.7
2018-Jun-17 11:00N 45°25' W 073°41'4 7.5
2018-Jun-17 10:30N 45°24' W 073°46'1 2.5
2018-Jun-17 10:00N 45°23' W 073°48'4 8.1
2018-Jun-17 09:30N 45°25' W 073°42'3 5.3
2018-Jun-17 09:00N 45°24' W 073°39'2 4.2
2018-Jun-17 08:30N 45°24' W 073°36'0 0.0
2018-Jun-17 08:00N 45°24' W 073°36'0 0.0
2018-Jun-17 07:30N 45°24' W 073°36'0 0.0
2018-Jun-17 07:00N 45°24' W 073°36'0 0.0
2018-Jun-17 06:30N 45°24' W 073°36'0 0.0
2018-Jun-17 06:00N 45°24' W 073°36'0 0.0
2018-Jun-17 05:30N 45°24' W 073°36'0 0.0
2018-Jun-17 05:00N 45°24' W 073°36'0 0.0
2018-Jun-17 04:30N 45°24' W 073°36'0 0.0
2018-Jun-17 03:59N 45°24' W 073°36'0 0.0
2018-Jun-17 03:30N 45°24' W 073°36'0 0.0
2018-Jun-17 03:00N 45°24' W 073°36'0 0.0
2018-Jun-17 02:30N 45°24' W 073°36'0 0.0
2018-Jun-17 02:00N 45°24' W 073°36'0 0.0
2018-Jun-17 01:30N 45°24' W 073°36'0 0.0
2018-Jun-17 01:00N 45°24' W 073°36'0 0.0
2018-Jun-17 00:30N 45°24' W 073°36'0 0.0
2018-Jun-17 00:00N 45°24' W 073°36'0 0.0
2018-Jun-16 23:30N 45°24' W 073°36'0 0.0
2018-Jun-16 23:00N 45°24' W 073°36'0 0.0
2018-Jun-16 22:30N 45°24' W 073°36'0 0.0
2018-Jun-16 22:00N 45°24' W 073°36'0 0.0
2018-Jun-16 21:30N 45°24' W 073°36'0 0.0
2018-Jun-16 21:00N 45°24' W 073°36'0 0.0
2018-Jun-16 20:30N 45°24' W 073°36'0 0.0
2018-Jun-16 20:00N 45°24' W 073°36'0 0.0
2018-Jun-16 19:30N 45°24' W 073°36'0 0.0
2018-Jun-16 19:00N 45°24' W 073°36'0 0.0
2018-Jun-16 18:30N 45°24' W 073°36'0 0.0
2018-Jun-16 18:00N 45°24' W 073°36'0 0.0
2018-Jun-16 17:30N 45°24' W 073°36'0 0.0
2018-Jun-16 17:00N 45°24' W 073°36'0 0.0
2018-Jun-16 16:30N 45°24' W 073°36'0 0.0
2018-Jun-16 15:59N 45°24' W 073°36'0 0.0
2018-Jun-16 15:30N 45°24' W 073°36'0 0.0
2018-Jun-16 15:00N 45°24' W 073°36'0 0.0
2018-Jun-16 14:30N 45°24' W 073°36'0 0.0
2018-Jun-16 14:00N 45°24' W 073°36'0 0.0
2018-Jun-16 13:30N 45°24' W 073°36'0 0.0
2018-Jun-16 12:59N 45°24' W 073°36'0 0.0
2018-Jun-16 12:30N 45°24' W 073°36'0 0.0
2018-Jun-16 12:00N 45°24' W 073°36'0 0.0
2018-Jun-16 11:30N 45°24' W 073°36'0 0.0
2018-Jun-16 11:00N 45°24' W 073°36'0 0.0
2018-Jun-16 10:30N 45°24' W 073°36'0 0.0
2018-Jun-16 10:00N 45°24' W 073°36'0 0.0
2018-Jun-16 09:30N 45°24' W 073°36'0 0.0
2018-Jun-16 09:00N 45°24' W 073°36'0 0.0
2018-Jun-16 08:30N 45°24' W 073°36'0 0.0
2018-Jun-16 08:00N 45°24' W 073°36'0 0.0
2018-Jun-16 07:30N 45°24' W 073°36'0 0.0
2018-Jun-16 07:00N 45°24' W 073°36'0 0.0
2018-Jun-16 06:30N 45°24' W 073°36'0 0.0
2018-Jun-16 06:00N 45°24' W 073°36'0 0.0
2018-Jun-16 05:30N 45°24' W 073°36'0 0.0
2018-Jun-16 05:00N 45°24' W 073°36'0 0.0
2018-Jun-16 04:30N 45°24' W 073°36'0 0.0
2018-Jun-16 04:00N 45°24' W 073°36'0 0.8
2018-Jun-16 03:30N 45°24' W 073°35'1 1.7
2018-Jun-16 03:01N 45°24' W 073°34'0 0.2
2018-Jun-16 02:31N 45°24' W 073°34'1 1.4
2018-Jun-16 02:01N 45°24' W 073°33'2 4.5
2018-Jun-16 01:31N 45°26' W 073°30'3 5.6
2018-Jun-16 01:01N 45°29' W 073°30'1 2.5
2018-Jun-16 00:31N 45°30' W 073°31'0 0.2
2018-Jun-16 00:00N 45°30' W 073°31'12 4.6
2018-Jun-15 21:31N 45°41' W 073°27'2 8.4
2018-Jun-15 21:14N 45°43' W 073°26'2 8.5
2018-Jun-15 20:59N 45°45' W 073°24'4 8.5
2018-Jun-15 20:30N 45°48' W 073°20'4 8.7
2018-Jun-15 20:00N 45°51' W 073°16'4 8.4
2018-Jun-15 19:30N 45°55' W 073°13'4 8.4
2018-Jun-15 19:00N 45°59' W 073°11'4 8.7
2018-Jun-15 18:30N 46°03' W 073°09'5 9.1
2018-Jun-15 18:00N 46°04' W 073°03'8910.0
2018-Jun-15 09:08N 46°49' W 071°11'1 8.3
2018-Jun-15 08:58N 46°50' W 071°11'  
2018-Jun-11 08:27N 46°50' W 071°09'9212.0
2018-Jun-11 00:49N 46°04' W 073°03'413.7
2018-Jun-11 00:31N 46°03' W 073°09'714.2
2018-Jun-11 00:01N 45°56' W 073°13'713.8
2018-Jun-10 23:30N 45°50' W 073°17'714.2
2018-Jun-10 23:00N 45°45' W 073°24'1510.9
2018-Jun-10 21:36N 45°30' W 073°31'0 4.4
2018-Jun-10 21:31N 45°30' W 073°31'0 0.4
2018-Jun-10 21:00N 45°30' W 073°31'0 0.7
2018-Jun-10 20:31N 45°29' W 073°31'1 1.7
2018-Jun-10 20:01N 45°28' W 073°30'2 3.8
2018-Jun-10 19:30N 45°26' W 073°30'1 2.8
2018-Jun-10 18:59N 45°25' W 073°31'2 4.7
2018-Jun-10 18:31N 45°24' W 073°34'0 0.6
2018-Jun-10 18:00N 45°24' W 073°34'1 1.1
2018-Jun-10 17:31N 45°24' W 073°35'1 1.3
2018-Jun-10 17:00N 45°24' W 073°36'0 0.0
2018-Jun-10 16:30N 45°24' W 073°36'0 0.0
2018-Jun-10 16:00N 45°24' W 073°36'0 0.0
2018-Jun-10 15:30N 45°24' W 073°36'0 0.0
2018-Jun-10 15:00N 45°24' W 073°36'0 0.0
2018-Jun-10 14:30N 45°24' W 073°36'0 0.0
2018-Jun-10 13:30N 45°24' W 073°36'0 0.0
2018-Jun-10 13:00N 45°24' W 073°36'0 0.0
2018-Jun-10 12:30N 45°24' W 073°36'0 0.0
2018-Jun-10 12:00N 45°24' W 073°36'0 0.0
2018-Jun-10 11:30N 45°24' W 073°36'0 0.0
2018-Jun-10 11:00N 45°24' W 073°36'0 0.0
2018-Jun-10 10:30N 45°24' W 073°36'0 0.0
2018-Jun-10 10:00N 45°24' W 073°36'0 0.0
2018-Jun-10 09:30N 45°24' W 073°36'0 0.0
2018-Jun-10 09:00N 45°24' W 073°36'0 0.0
2018-Jun-10 08:30N 45°24' W 073°36'0 0.0
2018-Jun-10 08:00N 45°24' W 073°36'0 0.0
2018-Jun-10 07:30N 45°24' W 073°36'0 0.0
2018-Jun-10 07:00N 45°24' W 073°36'0 0.0
2018-Jun-10 06:30N 45°24' W 073°36'0 0.0
2018-Jun-10 06:00N 45°24' W 073°36'0 0.0
2018-Jun-10 05:30N 45°24' W 073°36'0 0.0
2018-Jun-10 05:00N 45°24' W 073°36'0 0.0
2018-Jun-10 04:30N 45°24' W 073°36'0 0.0
2018-Jun-10 04:00N 45°24' W 073°36'0 0.0
2018-Jun-10 03:30N 45°24' W 073°36'0 0.0
2018-Jun-10 03:00N 45°24' W 073°36'0 0.0
2018-Jun-10 02:30N 45°24' W 073°36'0 0.0
2018-Jun-10 02:00N 45°24' W 073°36'0 0.0
2018-Jun-10 01:30N 45°24' W 073°36'0 0.0
2018-Jun-10 01:00N 45°24' W 073°36'0 0.0
2018-Jun-10 00:30N 45°24' W 073°36'0 0.0
2018-Jun-10 00:00N 45°24' W 073°36'0 0.0
2018-Jun-09 23:30N 45°24' W 073°36'0 0.0
2018-Jun-09 23:00N 45°24' W 073°36'0 0.0
2018-Jun-09 22:30N 45°24' W 073°36'0 0.0
2018-Jun-09 22:00N 45°24' W 073°36'0 0.0
2018-Jun-09 21:30N 45°24' W 073°36'0 0.0
2018-Jun-09 21:00N 45°24' W 073°36'0 0.0
2018-Jun-09 20:30N 45°24' W 073°36'0 0.0
2018-Jun-09 20:00N 45°24' W 073°36'0 0.0
2018-Jun-09 19:30N 45°24' W 073°36'0 0.0
2018-Jun-09 19:00N 45°24' W 073°36'0 0.0
2018-Jun-09 18:30N 45°24' W 073°36'0 0.0
2018-Jun-09 18:00N 45°24' W 073°36'0 0.0
2018-Jun-09 17:30N 45°24' W 073°36'0 0.0
2018-Jun-09 17:00N 45°24' W 073°36'0 0.0
2018-Jun-09 16:30N 45°24' W 073°36'0 0.0
2018-Jun-09 16:00N 45°24' W 073°36'0 0.0
2018-Jun-09 15:00N 45°24' W 073°36'0 0.0
2018-Jun-09 14:30N 45°24' W 073°36'0 0.0
2018-Jun-09 14:00N 45°24' W 073°36'0 0.0
2018-Jun-09 13:30N 45°24' W 073°36'0 0.0
2018-Jun-09 13:00N 45°24' W 073°36'0 0.0
2018-Jun-09 12:30N 45°24' W 073°36'0 0.0
2018-Jun-09 12:00N 45°24' W 073°36'0 0.0
2018-Jun-09 11:30N 45°24' W 073°36'0 0.0
2018-Jun-09 11:00N 45°24' W 073°36'0 0.0
2018-Jun-09 10:30N 45°24' W 073°36'0 0.0
2018-Jun-09 10:00N 45°24' W 073°36'0 0.7
2018-Jun-09 09:30N 45°24' W 073°36'1 3.0
2018-Jun-09 09:00N 45°24' W 073°38'3 5.2
2018-Jun-09 08:30N 45°25' W 073°42'4 7.7
2018-Jun-09 08:00N 45°24' W 073°47'0 0.2
2018-Jun-09 07:30N 45°24' W 073°47'4 8.1
2018-Jun-09 07:00N 45°25' W 073°42'3 5.6
2018-Jun-09 06:30N 45°24' W 073°38'3 5.2
2018-Jun-09 06:01N 45°24' W 073°34'0 0.4
2018-Jun-09 05:30N 45°24' W 073°34'1 1.5
2018-Jun-09 05:01N 45°24' W 073°33'2 4.9
2018-Jun-09 04:31N 45°26' W 073°30'3 6.0
2018-Jun-09 04:00N 45°29' W 073°31'1 1.2
2018-Jun-09 03:30N 45°30' W 073°31'0 0.6
2018-Jun-09 03:00N 45°30' W 073°31'11 5.9
2018-Jun-09 01:09N 45°41' W 073°27'3 8.7
2018-Jun-09 00:51N 45°43' W 073°26'3 8.7
2018-Jun-09 00:30N 45°46' W 073°23'4 8.9
2018-Jun-09 00:01N 45°49' W 073°19'4 8.9
2018-Jun-08 23:30N 45°52' W 073°15'4 8.4
2018-Jun-08 23:00N 45°56' W 073°13'4 8.6
2018-Jun-08 22:30N 46°00' W 073°11'4 8.0
2018-Jun-08 22:00N 46°03' W 073°07'91 7.7
2018-Jun-08 10:05N 46°48' W 071°12'1 8.3
2018-Jun-08 10:00N 46°49' W 071°12'  

Dump ship's entire track history